createdAt,value
2019-05-20T00:01:17.860Z,6.10
2019-05-20T00:05:19.778Z,7.33
2019-05-20T00:09:21.704Z,8.07
2019-05-20T00:13:24.274Z,5.67
2019-05-20T00:17:26.218Z,6.27
2019-05-20T00:21:28.227Z,7.37
2019-05-20T00:25:30.148Z,7.30
2019-05-20T00:29:32.101Z,7.93
2019-05-20T00:33:34.075Z,8.57
2019-05-20T00:37:36.103Z,5.93
2019-05-20T00:41:38.031Z,5.67
2019-05-20T00:45:39.951Z,7.57
2019-05-20T00:49:41.854Z,6.10
2019-05-20T00:53:43.779Z,7.40
2019-05-20T00:57:45.677Z,6.97
2019-05-20T01:01:48.728Z,7.97
2019-05-20T01:05:50.631Z,5.57
2019-05-20T01:09:52.543Z,5.17
2019-05-20T01:13:54.440Z,5.83
2019-05-20T01:17:56.793Z,6.50
2019-05-20T01:21:59.429Z,7.83
2019-05-20T01:26:01.667Z,6.00
2019-05-20T01:30:03.915Z,8.10
2019-05-20T01:34:05.969Z,5.97
2019-05-20T01:38:07.901Z,7.30
2019-05-20T01:42:09.820Z,10.75
2019-05-20T01:46:11.742Z,10.43
2019-05-20T01:50:13.899Z,8.20
2019-05-20T01:54:15.818Z,6.90
2019-05-20T01:58:17.739Z,7.92
2019-05-20T02:02:19.645Z,5.93
2019-05-20T02:06:21.619Z,8.95
2019-05-20T02:10:23.676Z,6.35
2019-05-20T02:14:36.103Z,7.87
2019-05-20T02:18:38.037Z,9.13
2019-05-20T02:22:40.007Z,10.07
2019-05-20T02:26:41.940Z,8.43
2019-05-20T02:30:43.866Z,8.37
2019-05-20T02:34:45.941Z,9.43
2019-05-20T02:38:47.860Z,9.13
2019-05-20T02:42:49.773Z,5.90
2019-05-20T02:46:51.848Z,7.93
2019-05-20T02:50:53.757Z,6.27
2019-05-20T02:54:55.666Z,6.80
2019-05-20T02:58:57.588Z,8.90
2019-05-20T03:02:59.487Z,8.07
2019-05-20T03:07:01.659Z,7.77
2019-05-20T03:11:03.588Z,7.13
2019-05-20T03:15:07.610Z,9.70
2019-05-20T03:19:09.520Z,8.67
2019-05-20T03:23:11.593Z,8.83
2019-05-20T03:27:13.512Z,9.25
2019-05-20T03:31:15.578Z,7.50
2019-05-20T03:35:17.953Z,7.70
2019-05-20T03:39:19.856Z,7.50
2019-05-20T03:43:21.792Z,8.03
2019-05-20T03:47:23.703Z,7.83
2019-05-20T03:51:25.723Z,9.53
2019-05-20T03:55:27.681Z,9.13
2019-05-20T03:59:29.599Z,6.93
2019-05-20T04:03:32.694Z,8.70
2019-05-20T04:07:34.779Z,9.30
2019-05-20T04:11:36.987Z,10.00
2019-05-20T04:15:40.974Z,9.67
2019-05-20T04:19:42.575Z,8.17
2019-05-20T04:23:44.533Z,8.57
2019-05-20T04:27:46.592Z,8.77
2019-05-20T04:31:48.517Z,9.40
2019-05-20T04:35:50.433Z,9.17
2019-05-20T04:39:53.508Z,7.27
2019-05-20T04:43:57.004Z,7.80
2019-05-20T04:47:58.929Z,6.00
2019-05-20T04:52:01.604Z,10.53
2019-05-20T04:56:03.523Z,9.10
2019-05-20T05:00:09.843Z,10.13
2019-05-20T05:04:13.365Z,9.33
2019-05-20T05:08:15.353Z,8.63
2019-05-20T05:12:17.576Z,10.58
2019-05-20T05:16:19.602Z,10.13
2019-05-20T05:20:21.507Z,9.37
2019-05-20T05:24:23.513Z,10.28
2019-05-20T05:28:25.983Z,11.10
2019-05-20T05:32:29.820Z,11.30
2019-05-20T05:36:31.740Z,9.77
2019-05-20T05:40:33.953Z,13.03
2019-05-20T05:44:35.900Z,10.17
2019-05-20T05:48:37.822Z,11.00
2019-05-20T05:52:39.744Z,12.77
2019-05-20T05:56:41.790Z,13.03
2019-05-20T06:00:43.746Z,12.50
2019-05-20T06:04:45.707Z,13.27
2019-05-20T06:08:47.634Z,12.57
2019-05-20T06:12:49.546Z,12.73
2019-05-20T06:16:51.475Z,12.23
2019-05-20T06:20:53.399Z,13.87
2019-05-20T06:24:55.328Z,11.93
2019-05-20T06:28:57.339Z,13.63
2019-05-20T06:32:59.264Z,12.63
2019-05-20T06:37:03.230Z,12.50
2019-05-20T06:41:08.194Z,12.00
2019-05-20T06:45:10.875Z,10.78
2019-05-20T06:49:12.860Z,11.87
2019-05-20T06:53:15.575Z,11.88
2019-05-20T06:57:17.502Z,13.15
2019-05-20T07:01:19.420Z,10.95
2019-05-20T07:05:21.355Z,12.87
2019-05-20T07:09:23.270Z,10.98
2019-05-20T07:13:25.309Z,11.60
2019-05-20T07:17:27.264Z,12.00
2019-05-20T07:21:29.172Z,11.37
2019-05-20T07:25:31.134Z,11.57
2019-05-20T07:29:33.121Z,12.10
2019-05-20T07:33:35.045Z,12.30
2019-05-20T07:37:37.017Z,11.83
2019-05-20T07:41:41.440Z,11.27
2019-05-20T07:45:43.252Z,11.40
2019-05-20T07:49:45.879Z,11.33
2019-05-20T07:53:47.908Z,10.90
2019-05-20T07:57:54.177Z,10.93
2019-05-20T08:01:56.280Z,11.40
2019-05-20T08:05:58.224Z,10.47
2019-05-20T08:10:00.294Z,10.47
2019-05-20T08:14:02.454Z,11.70
2019-05-20T08:18:04.515Z,11.03
2019-05-20T08:22:06.435Z,10.40
2019-05-20T08:26:08.650Z,11.13
2019-05-20T08:30:14.184Z,13.53
2019-05-20T08:34:16.035Z,12.60
2019-05-20T08:38:18.248Z,12.87
2019-05-20T08:42:20.157Z,10.90
2019-05-20T08:46:22.099Z,12.68
2019-05-20T08:50:24.106Z,11.93
2019-05-20T08:54:26.115Z,12.40
2019-05-20T08:58:28.034Z,12.65
2019-05-20T09:02:29.971Z,12.00
2019-05-20T09:06:31.966Z,13.23
2019-05-20T09:10:34.246Z,12.60
2019-05-20T09:14:36.162Z,12.60
2019-05-20T09:18:38.084Z,11.30
2019-05-20T09:22:40.034Z,13.07
2019-05-20T09:26:41.971Z,12.13
2019-05-20T09:30:43.961Z,13.73
2019-05-20T09:34:46.080Z,13.33
2019-05-20T09:38:47.952Z,15.07
2019-05-20T09:42:49.917Z,14.80
2019-05-20T09:46:51.800Z,13.50
2019-05-20T09:50:54.551Z,13.10
2019-05-20T09:54:56.473Z,13.87
2019-05-20T09:58:58.604Z,13.57
2019-05-20T10:03:00.625Z,13.23
2019-05-20T10:07:03.896Z,13.40
2019-05-20T10:11:06.364Z,12.90
2019-05-20T10:15:09.203Z,11.50
2019-05-20T10:19:11.152Z,10.28
2019-05-20T10:23:15.779Z,10.90
2019-05-20T10:27:16.707Z,12.65
2019-05-20T10:31:19.617Z,11.68
2019-05-20T10:35:21.543Z,11.68
2019-05-20T10:39:23.467Z,12.07
2019-05-20T10:43:28.968Z,11.23
2019-05-20T10:47:30.893Z,12.10
2019-05-20T10:51:32.835Z,12.10
2019-05-20T10:55:34.834Z,11.13
2019-05-20T10:59:36.752Z,10.97
2019-05-20T11:03:43.759Z,11.90
2019-05-20T11:07:45.943Z,11.97
2019-05-20T11:11:47.862Z,11.70
2019-05-20T11:15:49.798Z,12.57
2019-05-20T11:19:51.712Z,12.37
2019-05-20T11:23:53.641Z,11.10
2019-05-20T11:27:55.622Z,11.87
2019-05-20T11:31:57.558Z,12.30
2019-05-20T11:35:59.481Z,11.40
2019-05-20T11:40:01.393Z,13.30
2019-05-20T11:44:03.458Z,14.00
2019-05-20T11:48:06.290Z,12.73
2019-05-20T11:52:08.274Z,13.27
2019-05-20T11:56:12.117Z,13.27
2019-05-20T12:00:14.629Z,12.93
2019-05-20T12:04:16.539Z,12.45
2019-05-20T12:08:18.526Z,12.53
2019-05-20T12:12:20.550Z,12.73
2019-05-20T12:16:22.521Z,13.10
2019-05-20T12:20:24.452Z,13.80
2019-05-20T12:24:26.397Z,14.37
2019-05-20T12:28:28.321Z,14.37
2019-05-20T12:32:30.238Z,14.37
2019-05-20T12:36:32.160Z,15.33
2019-05-20T12:40:34.086Z,13.37
2019-05-20T12:44:36.015Z,16.37
2019-05-20T12:48:37.936Z,17.10
2019-05-20T12:52:39.871Z,16.00
2019-05-20T12:56:41.803Z,15.23
2019-05-20T13:00:44.015Z,15.93
2019-05-20T13:04:45.964Z,14.33
2019-05-20T13:08:47.878Z,15.00
2019-05-20T13:12:49.804Z,13.20
2019-05-20T13:16:51.745Z,14.53
2019-05-20T13:20:53.676Z,15.57
2019-05-20T13:24:55.606Z,14.70
2019-05-20T13:28:59.491Z,14.83
2019-05-20T13:33:01.243Z,14.20
2019-05-20T13:37:03.174Z,14.40
2019-05-20T13:41:06.627Z,15.20
2019-05-20T13:45:09.765Z,13.17
2019-05-20T13:49:11.705Z,2.25
2019-05-20T13:53:13.631Z,3.53
2019-05-20T13:57:15.546Z,3.80
2019-05-20T14:01:17.471Z,5.30
2019-05-20T14:05:19.458Z,4.10
2019-05-20T14:09:22.469Z,5.23
2019-05-20T14:13:24.383Z,4.50
2019-05-20T14:17:26.308Z,8.17
2019-05-20T14:21:28.213Z,6.50
2019-05-20T14:25:30.177Z,5.87
2019-05-20T14:29:32.164Z,8.47
2019-05-20T14:33:34.126Z,5.00
2019-05-20T14:37:36.048Z,6.00
2019-05-20T14:41:38.416Z,7.83
2019-05-20T14:45:40.578Z,7.20
2019-05-20T14:49:42.518Z,5.57
2019-05-20T14:53:45.205Z,8.48
2019-05-20T14:57:47.298Z,11.17
2019-05-20T15:01:49.226Z,12.57
2019-05-20T15:05:51.495Z,9.53
2019-05-20T15:09:53.577Z,12.23
2019-05-20T15:13:55.516Z,11.73
2019-05-20T15:17:57.436Z,12.93
2019-05-20T15:21:59.412Z,13.60
2019-05-20T15:26:01.344Z,12.30
2019-05-20T15:30:03.280Z,14.83
2019-05-20T15:34:06.450Z,15.88
2019-05-20T15:38:08.486Z,14.00
2019-05-20T15:42:10.418Z,13.10
2019-05-20T15:46:12.426Z,9.63
2019-05-20T15:50:15.360Z,10.53
2019-05-20T15:54:18.259Z,9.98
2019-05-20T15:58:23.568Z,9.40
2019-05-20T16:02:23.811Z,10.10
2019-05-20T16:06:25.730Z,10.27
2019-05-20T16:10:27.744Z,9.77
2019-05-20T16:14:29.699Z,8.50
2019-05-20T16:18:31.604Z,7.17
2019-05-20T16:22:33.590Z,8.83
2019-05-20T16:26:35.505Z,7.77
2019-05-20T16:30:37.500Z,10.00
2019-05-20T16:34:39.503Z,10.27
2019-05-20T16:38:41.409Z,9.60
2019-05-20T16:42:43.346Z,12.33
2019-05-20T16:46:45.261Z,10.70
2019-05-20T16:50:47.288Z,9.63
2019-05-20T16:54:49.210Z,9.70
2019-05-20T16:58:51.137Z,8.90
2019-05-20T17:02:53.063Z,10.17
2019-05-20T17:06:55.211Z,9.40
2019-05-20T17:10:57.126Z,8.20
2019-05-20T17:14:59.074Z,8.43
2019-05-20T17:19:01.059Z,7.50
2019-05-20T17:23:03.004Z,7.20
2019-05-20T17:27:04.976Z,7.63
2019-05-20T17:31:06.904Z,7.87
2019-05-20T17:35:09.259Z,8.23
2019-05-20T17:39:11.234Z,7.03
2019-05-20T17:43:13.218Z,6.90
2019-05-20T17:47:15.153Z,6.77
2019-05-20T17:51:17.227Z,6.20
2019-05-20T17:55:19.141Z,6.53
2019-05-20T17:59:21.073Z,6.30
2019-05-20T18:03:22.955Z,6.17
2019-05-20T18:07:25.828Z,6.60
2019-05-20T18:11:27.739Z,5.30
2019-05-20T18:15:30.691Z,5.90
2019-05-20T18:19:32.652Z,6.23
2019-05-20T18:23:35.517Z,5.67
2019-05-20T18:27:37.647Z,6.27
2019-05-20T18:31:39.647Z,6.03
2019-05-20T18:35:41.581Z,6.50
2019-05-20T18:39:43.660Z,6.83
2019-05-20T18:43:45.579Z,5.90
2019-05-20T18:47:47.575Z,6.37
2019-05-20T18:51:49.491Z,5.10
2019-05-20T18:55:51.401Z,5.67
2019-05-20T18:59:53.365Z,5.80
2019-05-20T19:03:55.920Z,5.77
2019-05-20T19:07:59.052Z,5.67
2019-05-20T19:12:01.483Z,5.70
2019-05-20T19:16:04.793Z,5.10
2019-05-20T19:20:08.313Z,5.40
2019-05-20T19:24:10.249Z,5.03
2019-05-20T19:28:12.723Z,5.33
2019-05-20T19:32:15.099Z,5.20
2019-05-20T19:36:18.927Z,6.08
2019-05-20T19:40:21.009Z,6.20
2019-05-20T19:44:23.094Z,5.60
2019-05-20T19:48:25.061Z,5.57
2019-05-20T19:52:26.977Z,5.83
2019-05-20T19:56:28.879Z,6.20
2019-05-20T20:00:30.790Z,6.57
2019-05-20T20:04:32.709Z,5.83
2019-05-20T20:08:36.169Z,6.93
2019-05-20T20:12:38.075Z,6.83
2019-05-20T20:16:39.990Z,7.47
2019-05-20T20:20:41.896Z,8.47
2019-05-20T20:24:43.826Z,6.60
2019-05-20T20:28:46.807Z,8.10
2019-05-20T20:32:48.724Z,7.23
2019-05-20T20:36:50.634Z,6.17
2019-05-20T20:40:52.633Z,7.20
2019-05-20T20:44:54.536Z,7.33
2019-05-20T20:48:56.528Z,5.90
2019-05-20T20:52:59.410Z,7.07
2019-05-20T20:57:01.342Z,6.80
2019-05-20T21:01:03.301Z,6.67
2019-05-20T21:05:06.739Z,6.90
2019-05-20T21:09:08.647Z,7.10
2019-05-20T21:13:10.559Z,6.77
2019-05-20T21:17:13.560Z,6.70
2019-05-20T21:21:15.465Z,6.47
2019-05-20T21:25:18.345Z,5.92
2019-05-20T21:29:21.327Z,6.13
2019-05-20T21:33:23.455Z,6.83
2019-05-20T21:37:25.393Z,6.77
2019-05-20T21:41:27.315Z,6.90
2019-05-20T21:45:29.262Z,7.60
2019-05-20T21:49:31.161Z,6.97
2019-05-20T21:53:33.077Z,6.47
2019-05-20T21:57:34.979Z,6.83
2019-05-20T22:01:37.068Z,7.00
2019-05-20T22:05:38.986Z,6.90
2019-05-20T22:09:40.924Z,7.93
2019-05-20T22:13:44.830Z,7.17
2019-05-20T22:17:46.824Z,7.22
2019-05-20T22:21:50.367Z,7.17
2019-05-20T22:25:52.958Z,6.47
2019-05-20T22:29:54.859Z,6.87
2019-05-20T22:33:56.817Z,7.73
2019-05-20T22:37:58.791Z,7.43
2019-05-20T22:42:00.733Z,6.60
2019-05-20T22:46:06.263Z,6.80
2019-05-20T22:50:08.509Z,7.63
2019-05-20T22:54:10.654Z,7.80
2019-05-20T22:58:12.771Z,7.13
2019-05-20T23:02:14.677Z,7.20
2019-05-20T23:06:16.602Z,7.08
2019-05-20T23:10:18.778Z,6.90
2019-05-20T23:14:20.691Z,4.90
2019-05-20T23:18:22.663Z,6.55
2019-05-20T23:22:25.531Z,7.33
2019-05-20T23:26:27.453Z,7.27
2019-05-20T23:30:29.428Z,6.57
2019-05-20T23:34:31.357Z,6.90
2019-05-20T23:38:33.528Z,8.33
2019-05-20T23:42:35.442Z,7.43
2019-05-20T23:46:37.406Z,7.07
2019-05-20T23:50:39.312Z,7.20
2019-05-20T23:54:41.235Z,7.03
2019-05-20T23:58:43.203Z,8.40
